Terminal Aerodrome Forecast
Issued by NWS Grand Forks, ND

Home | Current Version | Previous Version | Text Only | Print | Product List | Glossary Off
Versions: 1 2 3 4 5 6 7 8 9 10 11 12 13 14 15 16 17 18 19 20 21

000
FTUS43 KFGF 210200 AAA
TAFGFK
TAF AMD
KGFK 210209Z 2102/2124 16011KT P6SM BKN100
      TEMPO 2103/2104 -SHRA BKN080
     FM210600 29010KT P6SM SCT050
     FM211500 33019G26KT P6SM BKN030=

USA.gov is the U.S. government's official web portal to all federal, state and local government web resources and services.